Time;durP1;ratioP1;P1;durP2;ratioP2;P2;SDS_P1;SDS_P2;PMS_P1;PMS_P2;Temp;Humidity;BMP_temperature;BMP_pressure;BME280_temperature;BME280_humidity;BME280_pressure;Samples;Min_cycle;Max_cycle;Signal;HPM_P1;HPM_P2
2023/01/01 00:01:23;;;;;;;6.37;2.53;;;17.00;99.90;;;;;;5065359;28;20211;-32
2023/01/01 00:03:55;;;;;;;7.13;2.70;;;17.00;99.90;;;;;;5062887;28;20321;-33
2023/01/01 00:06:25;;;;;;;5.47;2.73;;;17.00;99.90;;;;;;5045400;28;20240;-33
2023/01/01 00:10:26;;;;;;;5.27;2.60;;;16.90;99.90;;;;;;5060217;28;20296;-32
2023/01/01 00:11:39;;;;;;;8.27;3.07;;;17.00;99.90;;;;;;5045499;28;20453;-33
2023/01/01 00:14:07;;;;;;;6.80;2.90;;;16.90;99.90;;;;;;5044278;28;20722;-32
2023/01/01 00:16:38;;;;;;;5.37;2.03;;;16.90;99.90;;;;;;5045904;28;20232;-33
2023/01/01 00:19:06;;;;;;;4.67;1.90;;;16.90;99.90;;;;;;5044769;28;20250;-33
2023/01/01 00:21:33;;;;;;;8.33;2.33;;;16.80;99.90;;;;;;5044738;28;20303;-32
2023/01/01 00:24:01;;;;;;;3.93;2.00;;;16.80;99.90;;;;;;5045153;28;20346;-33
2023/01/01 00:26:28;;;;;;;7.17;1.87;;;16.80;99.90;;;;;;5060411;28;20198;-33
2023/01/01 00:29:04;;;;;;;3.40;1.80;;;16.80;99.90;;;;;;5044117;28;20220;-32
2023/01/01 00:31:34;;;;;;;6.20;1.70;;;16.80;99.90;;;;;;5044930;28;20200;-33
2023/01/01 00:34:03;;;;;;;8.67;2.00;;;16.80;99.90;;;;;;5045201;28;20211;-33
2023/01/01 00:36:33;;;;;;;5.80;2.20;;;16.80;99.90;;;;;;5044985;28;20674;-33
2023/01/01 00:39:02;;;;;;;4.17;2.03;;;16.80;99.90;;;;;;5059917;28;20986;-33
2023/01/01 00:41:29;;;;;;;4.00;1.90;;;16.80;99.90;;;;;;5045337;28;20200;-33
2023/01/01 00:43:56;;;;;;;5.27;2.13;;;16.70;99.90;;;;;;5043942;28;20342;-33
2023/01/01 00:46:26;;;;;;;6.20;2.03;;;16.80;99.90;;;;;;5044571;28;20247;-33
2023/01/01 00:48:58;;;;;;;7.20;2.20;;;16.80;99.90;;;;;;5044944;28;20476;-32
2023/01/01 00:51:25;;;;;;;4.53;1.97;;;16.70;99.90;;;;;;5045010;28;20282;-33
2023/01/01 00:53:56;;;;;;;4.03;2.17;;;16.80;99.90;;;;;;5044865;28;20204;-32
2023/01/01 00:56:25;;;;;;;6.63;1.90;;;16.70;99.90;;;;;;5044780;28;20251;-33
2023/01/01 00:58:52;;;;;;;3.50;1.83;;;16.70;99.90;;;;;;5053167;28;20596;-33
2023/01/01 01:01:28;;;;;;;5.63;2.20;;;16.80;99.90;;;;;;5064845;28;20689;-32
2023/01/01 01:03:55;;;;;;;4.80;2.07;;;16.70;99.90;;;;;;5064723;28;20246;-33
2023/01/01 01:06:25;;;;;;;5.20;2.27;;;16.80;99.90;;;;;;5064659;28;20644;-33
2023/01/01 01:08:52;;;;;;;3.90;1.93;;;16.70;99.90;;;;;;5064694;28;20710;-33
2023/01/01 01:11:23;;;;;;;3.40;1.77;;;16.70;99.90;;;;;;5079732;28;20215;-33
2023/01/01 01:13:54;;;;;;;7.77;1.97;;;16.70;99.90;;;;;;5063507;28;20725;-33
2023/01/01 01:16:28;;;;;;;5.90;2.23;;;16.70;99.90;;;;;;5064218;28;20246;-33
2023/01/01 01:19:00;;;;;;;4.03;2.00;;;16.60;99.90;;;;;;5079257;28;20244;-33
2023/01/01 01:21:30;;;;;;;6.57;2.20;;;16.60;99.90;;;;;;5064326;28;20200;-33
2023/01/01 01:24:03;;;;;;;8.60;2.13;;;16.70;99.90;;;;;;5064027;28;20286;-32
2023/01/01 01:26:35;;;;;;;4.13;1.97;;;16.70;99.90;;;;;;5064482;28;20283;-33
2023/01/01 01:29:03;;;;;;;6.07;2.30;;;16.70;99.90;;;;;;5063558;28;20235;-33
2023/01/01 01:31:31;;;;;;;5.03;2.70;;;16.70;99.90;;;;;;5064710;28;20211;-33
2023/01/01 01:34:01;;;;;;;4.93;2.37;;;16.70;99.90;;;;;;5064802;28;20210;-31
2023/01/01 01:36:30;;;;;;;6.43;2.57;;;16.70;99.90;;;;;;5068245;28;20595;-32
2023/01/01 01:38:59;;;;;;;4.07;2.10;;;16.70;99.90;;;;;;5067992;28;20195;-32
2023/01/01 01:41:29;;;;;;;4.53;2.07;;;16.70;99.90;;;;;;5068494;28;20207;-32
2023/01/01 01:44:42;;;;;;;6.40;2.33;;;16.70;99.90;;;;;;5067412;28;20214;-31
2023/01/01 01:47:31;;;;;;;4.93;2.20;;;16.70;99.90;;;;;;5067965;28;20200;-32
2023/01/01 01:50:05;;;;;;;7.53;2.10;;;16.70;99.90;;;;;;5068039;28;20325;-31
2023/01/01 01:52:35;;;;;;;3.87;1.93;;;16.70;99.90;;;;;;5065040;28;20305;-32
2023/01/01 01:55:08;;;;;;;6.47;1.80;;;16.70;99.90;;;;;;5048436;28;20202;-33
2023/01/01 01:57:37;;;;;;;4.80;1.90;;;16.70;99.90;;;;;;5047226;28;20303;-31
2023/01/01 02:00:05;;;;;;;6.60;2.13;;;16.70;99.90;;;;;;5066755;28;20200;-33
2023/01/01 02:02:45;;;;;;;5.00;2.00;;;16.70;99.90;;;;;;5067289;28;20187;-32
2023/01/01 02:05:12;;;;;;;6.10;1.80;;;16.70;99.90;;;;;;5067327;28;20215;-33
2023/01/01 02:07:40;;;;;;;4.90;1.70;;;16.70;99.90;;;;;;5068974;28;20274;-32
2023/01/01 02:10:10;;;;;;;9.27;2.33;;;16.70;99.90;;;;;;5067345;28;20288;-32
2023/01/01 02:12:37;;;;;;;3.83;2.00;;;16.70;99.90;;;;;;5066408;28;22066;-32
2023/01/01 02:15:06;;;;;;;4.97;1.90;;;16.80;99.90;;;;;;5049144;28;20657;-32
2023/01/01 02:17:52;;;;;;;5.07;2.03;;;16.70;99.90;;;;;;5056377;28;20280;-32
2023/01/01 02:20:24;;;;;;;5.00;1.80;;;16.80;99.90;;;;;;5053400;28;20195;-32
2023/01/01 02:23:00;;;;;;;6.00;1.60;;;16.70;99.90;;;;;;5054815;28;20220;-31
2023/01/01 02:25:59;;;;;;;5.35;1.88;;;16.70;99.90;;;;;;5047289;28;20660;-32
2023/01/01 02:28:46;;;;;;;4.93;1.70;;;16.70;99.90;;;;;;5026524;28;20522;-32
2023/01/01 02:31:26;;;;;;;5.73;2.10;;;16.70;99.90;;;;;;5047413;28;20200;-32
2023/01/01 02:33:58;;;;;;;5.90;1.90;;;16.70;99.90;;;;;;5046948;28;20701;-32
2023/01/01 02:36:29;;;;;;;6.20;1.80;;;16.70;99.90;;;;;;5047162;28;20565;-32
2023/01/01 02:39:02;;;;;;;7.67;1.97;;;16.70;99.90;;;;;;5046965;28;20566;-32
2023/01/01 02:41:42;;;;;;;4.53;1.70;;;16.70;99.90;;;;;;5046958;28;20291;-32
2023/01/01 02:44:10;;;;;;;4.20;1.63;;;16.70;99.90;;;;;;5046231;28;20208;-32
2023/01/01 02:46:38;;;;;;;5.83;2.00;;;16.70;99.90;;;;;;5048868;28;20196;-31
2023/01/01 02:49:05;;;;;;;4.67;1.87;;;16.70;99.90;;;;;;5065994;28;20218;-32
2023/01/01 02:51:49;;;;;;;4.80;1.70;;;16.70;99.90;;;;;;5066912;28;20817;-32
2023/01/01 02:54:16;;;;;;;6.90;2.07;;;16.70;99.90;;;;;;5067040;28;20228;-32
2023/01/01 02:56:49;;;;;;;4.30;1.80;;;16.70;99.90;;;;;;5066613;28;20223;-32
2023/01/01 03:02:40;;;;;;;4.97;1.83;;;16.60;99.90;;;;;;5083418;28;20399;-32
2023/01/01 03:05:22;;;;;;;7.33;1.80;;;16.60;99.90;;;;;;5068318;28;20253;-32
2023/01/01 03:08:14;;;;;;;4.80;1.70;;;16.70;99.90;;;;;;5066275;28;20199;-32
2023/01/01 03:10:52;;;;;;;5.23;1.90;;;16.60;99.90;;;;;;5065049;28;20239;-32
2023/01/01 03:13:41;;;;;;;7.10;1.80;;;16.60;99.90;;;;;;5065744;28;20202;-32
2023/01/01 03:16:20;;;;;;;5.97;1.97;;;16.50;99.90;;;;;;5066131;28;20223;-32
2023/01/01 03:19:09;;;;;;;4.17;1.80;;;16.50;99.90;;;;;;5066070;28;20691;-32
2023/01/01 03:21:51;;;;;;;5.00;2.00;;;16.50;99.90;;;;;;5066734;28;20697;-32
2023/01/01 03:24:32;;;;;;;5.97;1.90;;;16.50;99.90;;;;;;5064768;28;20250;-32
2023/01/01 03:27:05;;;;;;;4.10;1.50;;;16.50;99.90;;;;;;5066242;28;20294;-32
2023/01/01 03:29:39;;;;;;;5.37;1.90;;;16.50;99.90;;;;;;5065213;28;20231;-31
2023/01/01 03:32:13;;;;;;;3.57;1.97;;;16.50;99.90;;;;;;5066338;28;20290;-32
2023/01/01 03:34:50;;;;;;;7.60;1.70;;;16.50;99.90;;;;;;5048550;28;20231;-32
2023/01/01 03:37:22;;;;;;;6.10;1.70;;;16.50;99.90;;;;;;5065833;28;20231;-32
2023/01/01 03:39:56;;;;;;;6.90;1.87;;;16.50;99.90;;;;;;5065929;28;20191;-32
2023/01/01 03:42:45;;;;;;;5.10;1.80;;;16.50;99.90;;;;;;5050212;28;21013;-32
2023/01/01 03:45:34;;;;;;;7.20;2.03;;;16.40;99.90;;;;;;5045798;28;20283;-32
2023/01/01 03:48:04;;;;;;;4.47;2.20;;;16.40;99.90;;;;;;5046001;28;20676;-32
2023/01/01 03:51:06;;;;;;;7.60;2.80;;;16.40;99.90;;;;;;5046148;28;20231;-33
2023/01/01 03:53:41;;;;;;;6.67;2.30;;;16.40;99.90;;;;;;5045599;28;20320;-32
2023/01/01 03:56:49;;;;;;;4.47;2.40;;;16.40;99.90;;;;;;5045262;28;20736;-32
2023/01/01 03:59:39;;;;;;;6.53;2.30;;;16.40;99.90;;;;;;5043792;28;20196;-32
2023/01/01 04:02:09;;;;;;;5.80;2.47;;;16.40;99.90;;;;;;5045581;28;20247;-32
2023/01/01 04:04:37;;;;;;;7.07;2.33;;;16.40;99.90;;;;;;5045579;28;20192;-32
2023/01/01 04:07:09;;;;;;;5.57;2.30;;;16.40;99.90;;;;;;5045680;28;20231;-32
2023/01/01 04:09:48;;;;;;;5.80;2.67;;;16.40;99.90;;;;;;5045280;28;20603;-33
2023/01/01 04:12:19;;;;;;;4.20;1.83;;;16.40;99.90;;;;;;5045230;28;20254;-33
2023/01/01 04:14:49;;;;;;;3.93;2.10;;;16.40;99.90;;;;;;5045449;28;20200;-32
2023/01/01 04:17:19;;;;;;;5.73;2.00;;;16.30;99.90;;;;;;5045176;28;20702;-32
2023/01/01 04:19:49;;;;;;;4.93;1.90;;;16.40;99.90;;;;;;5045156;28;20214;-32
2023/01/01 04:22:22;;;;;;;3.03;1.67;;;16.30;99.90;;;;;;5045254;28;20602;-32
2023/01/01 04:24:52;;;;;;;9.43;2.33;;;16.40;99.90;;;;;;5043757;28;20699;-32
2023/01/01 04:27:21;;;;;;;4.77;1.90;;;16.40;99.90;;;;;;5045164;28;20583;-31
2023/01/01 04:29:48;;;;;;;4.07;2.17;;;16.40;99.90;;;;;;5044768;28;20227;-32
2023/01/01 04:32:16;;;;;;;6.33;1.83;;;16.30;99.90;;;;;;5043970;28;20660;-32
2023/01/01 04:34:45;;;;;;;4.93;1.70;;;16.30;99.90;;;;;;5046184;28;20689;-31
2023/01/01 04:37:13;;;;;;;6.13;2.13;;;16.30;99.90;;;;;;5048371;28;20789;-32
2023/01/01 04:39:40;;;;;;;6.90;2.17;;;16.30;99.90;;;;;;5044868;28;20197;-31
2023/01/01 04:42:08;;;;;;;4.87;1.93;;;16.30;99.90;;;;;;5045001;28;20223;-32
2023/01/01 04:44:35;;;;;;;6.00;1.90;;;16.30;99.90;;;;;;5044328;28;20278;-32
2023/01/01 04:47:07;;;;;;;4.13;1.87;;;16.30;99.90;;;;;;5044765;28;20210;-31
2023/01/01 04:49:38;;;;;;;4.50;1.70;;;16.30;99.90;;;;;;5044815;28;20558;-32
2023/01/01 04:52:06;;;;;;;3.57;1.47;;;16.30;99.90;;;;;;5045027;28;20244;-32
2023/01/01 04:54:33;;;;;;;9.10;2.00;;;16.30;99.90;;;;;;5043131;28;20262;-32
2023/01/01 04:57:02;;;;;;;6.53;2.20;;;16.30;99.90;;;;;;5044947;28;20224;-32
2023/01/01 04:59:32;;;;;;;7.73;2.23;;;16.30;99.90;;;;;;5043881;28;20678;-32
2023/01/01 05:01:59;;;;;;;6.13;2.00;;;16.30;99.90;;;;;;5044570;28;20351;-32
2023/01/01 05:04:29;;;;;;;5.43;1.97;;;16.30;99.90;;;;;;5044549;28;20772;-32
2023/01/01 05:06:56;;;;;;;8.00;2.10;;;16.30;99.90;;;;;;5043627;28;20192;-31
2023/01/01 05:09:26;;;;;;;4.13;1.93;;;16.20;99.90;;;;;;5047836;28;20663;-32
2023/01/01 05:11:54;;;;;;;6.30;2.00;;;16.20;99.90;;;;;;5049258;28;20224;-32
2023/01/01 05:14:24;;;;;;;6.53;2.00;;;16.20;99.90;;;;;;5048280;28;20202;-32
2023/01/01 05:16:51;;;;;;;6.10;1.97;;;16.20;99.90;;;;;;5048560;28;20224;-32
2023/01/01 05:19:19;;;;;;;7.13;1.73;;;16.30;99.90;;;;;;5048673;28;20196;-32
2023/01/01 05:21:48;;;;;;;5.57;2.20;;;16.30;99.90;;;;;;5030645;28;20212;-32
2023/01/01 05:24:18;;;;;;;3.73;1.97;;;16.30;99.90;;;;;;5048352;28;20215;-32
2023/01/01 05:26:48;;;;;;;6.60;2.30;;;16.30;99.90;;;;;;5048535;28;20556;-31
2023/01/01 05:29:22;;;;;;;3.37;1.80;;;16.30;99.90;;;;;;5051660;28;20765;-31
2023/01/01 05:31:49;;;;;;;3.47;1.67;;;16.20;99.90;;;;;;5067748;28;20235;-32
2023/01/01 05:34:16;;;;;;;6.90;2.27;;;16.20;99.90;;;;;;5066794;28;20204;-32
2023/01/01 05:36:44;;;;;;;6.33;2.07;;;16.20;99.90;;;;;;5068208;28;20586;-31
2023/01/01 05:39:11;;;;;;;6.87;2.03;;;16.20;99.90;;;;;;5068161;28;20277;-32
2023/01/01 05:41:39;;;;;;;8.23;2.40;;;16.20;99.90;;;;;;5068458;28;20203;-32
2023/01/01 05:44:12;;;;;;;5.20;2.27;;;16.20;99.90;;;;;;5067476;28;20249;-32
2023/01/01 05:46:39;;;;;;;6.03;2.50;;;16.20;99.90;;;;;;5067914;28;20215;-32
2023/01/01 05:49:11;;;;;;;6.00;2.33;;;16.20;99.90;;;;;;5066518;28;20219;-32
2023/01/01 05:51:41;;;;;;;6.13;2.30;;;16.30;99.90;;;;;;5068651;28;20289;-32
2023/01/01 05:54:09;;;;;;;4.87;2.10;;;16.30;99.90;;;;;;5068019;28;20191;-32
2023/01/01 05:56:40;;;;;;;5.97;1.90;;;16.30;99.90;;;;;;5068162;28;20899;-31
2023/01/01 05:59:09;;;;;;;5.60;2.13;;;16.30;99.90;;;;;;5058495;28;20196;-31
2023/01/01 06:01:38;;;;;;;5.43;2.30;;;16.30;99.90;;;;;;5048588;28;20204;-31
2023/01/01 06:04:12;;;;;;;6.13;2.30;;;16.20;99.90;;;;;;5047942;28;20220;-31
2023/01/01 06:06:39;;;;;;;6.10;1.93;;;16.20;99.90;;;;;;5048110;28;20188;-31
2023/01/01 06:09:08;;;;;;;6.47;2.40;;;16.20;99.90;;;;;;5046132;28;20539;-31
2023/01/01 06:11:36;;;;;;;4.80;1.90;;;16.20;99.90;;;;;;5047914;28;20225;-31
2023/01/01 06:14:03;;;;;;;6.73;2.43;;;16.20;99.90;;;;;;5064716;28;20273;-31
2023/01/01 06:16:32;;;;;;;5.53;2.13;;;16.20;99.90;;;;;;5056227;28;20330;-31
2023/01/01 06:19:00;;;;;;;6.83;2.47;;;16.20;99.90;;;;;;5047527;28;20204;-31
2023/01/01 06:21:28;;;;;;;5.80;2.23;;;16.20;99.90;;;;;;5055136;28;20575;-31
2023/01/01 06:23:57;;;;;;;6.37;2.77;;;16.20;99.90;;;;;;5057065;28;20225;-31
2023/01/01 06:26:27;;;;;;;6.77;2.47;;;16.20;99.90;;;;;;5067576;28;20298;-32
2023/01/01 06:28:57;;;;;;;5.33;2.00;;;16.20;99.90;;;;;;5066417;28;21066;-31
2023/01/01 06:31:25;;;;;;;6.37;2.30;;;16.20;99.90;;;;;;5067521;28;20226;-32
2023/01/01 06:33:55;;;;;;;6.37;2.43;;;16.20;99.90;;;;;;5053577;28;20299;-32
2023/01/01 06:36:24;;;;;;;4.83;2.13;;;16.20;99.90;;;;;;5029583;28;20185;-30
2023/01/01 06:38:54;;;;;;;9.07;2.40;;;16.20;99.90;;;;;;5046767;28;20251;-32
2023/01/01 06:41:24;;;;;;;6.87;2.27;;;16.20;99.90;;;;;;5047289;28;20682;-31
2023/01/01 06:43:51;;;;;;;8.93;2.60;;;16.20;99.90;;;;;;5046519;28;20215;-31
2023/01/01 06:46:22;;;;;;;9.70;3.23;;;16.20;99.90;;;;;;5063515;28;20195;-31
2023/01/01 06:48:52;;;;;;;8.03;2.93;;;16.20;99.90;;;;;;5059419;28;20211;-31
2023/01/01 06:51:24;;;;;;;7.70;2.40;;;16.20;99.90;;;;;;5047428;28;20286;-31
2023/01/01 06:53:51;;;;;;;10.23;2.13;;;16.20;99.90;;;;;;5051909;28;20269;-31
2023/01/01 06:56:20;;;;;;;6.73;2.33;;;16.20;99.90;;;;;;5065839;28;20204;-31
2023/01/01 06:58:47;;;;;;;5.50;2.30;;;16.20;99.90;;;;;;5063630;28;20200;-31
2023/01/01 07:01:20;;;;;;;7.97;2.47;;;16.20;99.90;;;;;;5067236;28;20605;-32
2023/01/01 07:03:58;;;;;;;5.43;2.20;;;16.20;99.90;;;;;;5064362;28;20220;-31
2023/01/01 07:06:26;;;;;;;6.67;2.10;;;16.20;99.90;;;;;;5065482;28;20593;-31
2023/01/01 07:08:56;;;;;;;9.17;2.70;;;16.20;99.90;;;;;;5062533;28;20200;-32
2023/01/01 07:11:24;;;;;;;7.23;2.50;;;16.20;99.90;;;;;;5060182;28;20192;-31
2023/01/01 07:13:51;;;;;;;6.90;2.30;;;16.20;99.90;;;;;;5058318;28;20211;-32
2023/01/01 07:16:18;;;;;;;7.93;2.83;;;16.20;99.90;;;;;;5065514;28;20204;-31
2023/01/01 07:18:47;;;;;;;7.63;2.33;;;16.10;99.90;;;;;;5055581;28;20224;-32
2023/01/01 07:21:31;;;;;;;7.93;2.50;;;16.10;99.90;;;;;;5046790;28;20287;-31
2023/01/01 07:24:03;;;;;;;10.10;2.80;;;16.20;99.90;;;;;;5066293;28;20223;-31
2023/01/01 07:26:34;;;;;;;5.37;2.10;;;16.20;99.90;;;;;;5065168;28;20195;-32
2023/01/01 07:29:04;;;;;;;6.03;2.47;;;16.20;99.90;;;;;;5049887;28;20478;-32
2023/01/01 07:31:40;;;;;;;6.87;2.50;;;16.10;99.90;;;;;;5063176;28;20227;-32
2023/01/01 07:34:18;;;;;;;6.83;2.97;;;16.20;99.90;;;;;;5063741;28;20211;-32
2023/01/01 07:36:45;;;;;;;6.70;2.73;;;16.20;99.90;;;;;;5065995;28;20215;-31
2023/01/01 07:39:12;;;;;;;7.43;2.50;;;16.20;99.90;;;;;;5059245;28;20204;-31
2023/01/01 07:41:41;;;;;;;8.00;2.30;;;16.10;99.90;;;;;;5065660;28;20207;-32
2023/01/01 07:44:11;;;;;;;10.40;3.20;;;16.10;99.90;;;;;;5059304;28;20208;-32
2023/01/01 07:46:38;;;;;;;6.93;2.10;;;16.10;99.90;;;;;;5045953;28;20309;-31
2023/01/01 07:49:06;;;;;;;7.53;2.50;;;16.00;99.90;;;;;;5059153;28;20681;-32
2023/01/01 07:51:33;;;;;;;7.17;2.63;;;16.00;99.90;;;;;;5065012;28;20266;-32
2023/01/01 07:54:00;;;;;;;5.13;2.37;;;16.00;99.90;;;;;;5063599;28;20191;-31
2023/01/01 07:56:34;;;;;;;8.53;2.43;;;16.00;99.90;;;;;;5060895;28;20196;-32
2023/01/01 07:59:03;;;;;;;7.93;2.60;;;16.00;99.90;;;;;;5060433;28;20217;-32
2023/01/01 08:01:33;;;;;;;5.93;2.60;;;16.00;99.90;;;;;;5064567;28;20291;-32
2023/01/01 08:04:00;;;;;;;6.67;2.20;;;16.00;99.90;;;;;;5061961;28;20199;-32
2023/01/01 08:06:32;;;;;;;7.57;2.40;;;16.00;99.90;;;;;;5061572;28;20218;-31
2023/01/01 08:09:01;;;;;;;9.57;2.90;;;16.00;99.90;;;;;;5063395;28;20223;-32
2023/01/01 08:11:28;;;;;;;6.07;2.40;;;16.00;99.90;;;;;;5064223;28;20235;-31
2023/01/01 08:13:55;;;;;;;9.00;2.73;;;16.00;99.90;;;;;;5063075;28;21335;-30
2023/01/01 08:16:27;;;;;;;8.13;3.03;;;15.90;99.90;;;;;;5059403;28;20207;-31
2023/01/01 08:18:54;;;;;;;6.37;2.37;;;15.90;99.90;;;;;;5058762;28;20224;-31
2023/01/01 08:21:22;;;;;;;5.87;2.40;;;16.00;99.90;;;;;;5054772;28;20215;-32
2023/01/01 08:23:54;;;;;;;9.13;2.80;;;16.00;99.90;;;;;;5059572;28;20702;-32
2023/01/01 08:26:30;;;;;;;6.57;2.60;;;16.00;99.90;;;;;;5063803;28;20217;-32
2023/01/01 08:29:02;;;;;;;5.00;2.33;;;16.00;99.90;;;;;;5044550;28;20568;-31
2023/01/01 08:31:29;;;;;;;6.47;2.50;;;15.90;99.90;;;;;;5050360;28;20623;-31
2023/01/01 08:33:58;;;;;;;9.60;2.53;;;15.90;99.90;;;;;;5063438;28;20238;-31
2023/01/01 08:36:26;;;;;;;8.43;2.30;;;15.90;99.90;;;;;;5062009;28;20299;-31
2023/01/01 08:38:53;;;;;;;8.20;2.70;;;15.90;99.90;;;;;;5056635;28;20230;-31
2023/01/01 08:41:20;;;;;;;5.07;2.30;;;15.80;99.90;;;;;;5063911;28;20215;-31
2023/01/01 08:43:50;;;;;;;8.53;3.00;;;15.80;99.90;;;;;;5064476;28;20295;-31
2023/01/01 08:46:17;;;;;;;6.60;2.40;;;15.80;99.90;;;;;;5062163;28;20200;-31
2023/01/01 08:48:48;;;;;;;6.67;2.20;;;15.80;99.90;;;;;;5065795;28;20652;-31
2023/01/01 08:51:16;;;;;;;7.60;2.40;;;15.80;99.90;;;;;;5062040;28;20227;-31
2023/01/01 08:53:46;;;;;;;7.07;2.57;;;15.80;99.90;;;;;;5063759;28;20567;-31
2023/01/01 08:56:19;;;;;;;7.20;2.40;;;15.80;99.90;;;;;;5070101;28;20632;-31
2023/01/01 08:58:51;;;;;;;6.87;3.07;;;15.70;99.90;;;;;;5063325;28;20698;-31
2023/01/01 09:01:20;;;;;;;7.30;2.97;;;15.80;99.90;;;;;;5064686;28;20321;-31
2023/01/01 09:03:48;;;;;;;9.43;2.50;;;15.80;99.90;;;;;;5061203;28;20204;-31
2023/01/01 09:06:16;;;;;;;7.47;2.47;;;15.80;99.90;;;;;;5061192;28;20203;-31
2023/01/01 09:08:43;;;;;;;5.17;2.47;;;15.80;99.90;;;;;;5058200;28;20230;-31
2023/01/01 09:11:21;;;;;;;7.33;2.40;;;15.80;99.90;;;;;;5059435;28;20207;-32
2023/01/01 09:13:49;;;;;;;6.77;2.37;;;15.80;99.90;;;;;;5059641;28;20713;-32
2023/01/01 09:16:16;;;;;;;5.17;2.37;;;15.80;99.90;;;;;;5063932;28;20210;-32
2023/01/01 09:18:46;;;;;;;6.47;2.30;;;15.90;99.90;;;;;;5061980;28;20587;-31
2023/01/01 09:21:13;;;;;;;6.57;2.43;;;15.90;99.90;;;;;;5058603;28;20465;-32
2023/01/01 09:23:40;;;;;;;5.30;2.93;;;15.90;99.90;;;;;;5057457;28;20273;-32
2023/01/01 09:26:08;;;;;;;9.70;2.97;;;15.90;99.90;;;;;;5062942;28;20654;-31
2023/01/01 09:28:38;;;;;;;6.37;2.57;;;15.90;99.90;;;;;;5060157;28;20478;-31
2023/01/01 09:31:08;;;;;;;5.33;2.37;;;15.90;99.90;;;;;;5063900;28;20765;-31
2023/01/01 09:33:35;;;;;;;7.67;2.63;;;16.00;99.90;;;;;;5061533;28;20239;-32
2023/01/01 09:36:27;;;;;;;6.47;2.60;;;16.00;99.90;;;;;;5061702;28;20458;-31
2023/01/01 09:38:55;;;;;;;10.33;2.70;;;16.00;99.90;;;;;;5060159;28;20262;-32
2023/01/01 09:41:32;;;;;;;8.30;2.30;;;16.00;99.90;;;;;;5063988;28;20716;-31
2023/01/01 09:44:08;;;;;;;9.27;2.60;;;16.00;99.90;;;;;;5062203;28;20227;-32
2023/01/01 09:46:35;;;;;;;6.20;2.57;;;16.00;99.90;;;;;;5065031;28;20203;-32
2023/01/01 09:49:12;;;;;;;7.40;2.30;;;16.10;99.90;;;;;;5062912;28;20262;-32
2023/01/01 09:51:41;;;;;;;5.03;2.30;;;16.10;99.90;;;;;;5055159;28;20562;-32
2023/01/01 09:54:29;;;;;;;5.67;2.50;;;16.10;99.90;;;;;;5062484;28;20302;-32
2023/01/01 09:56:58;;;;;;;7.83;2.40;;;16.10;99.90;;;;;;5067438;28;20211;-32
2023/01/01 09:59:26;;;;;;;7.53;2.43;;;16.10;99.90;;;;;;5066124;28;20208;-31
2023/01/01 10:02:00;;;;;;;5.60;2.60;;;16.20;99.90;;;;;;5067522;28;20265;-31
2023/01/01 10:04:59;;;;;;;7.63;2.37;;;16.20;99.90;;;;;;5065541;28;20199;-31
2023/01/01 10:07:48;;;;;;;8.33;2.53;;;16.20;99.90;;;;;;5063783;28;20215;-31
2023/01/01 10:10:34;;;;;;;5.20;2.30;;;16.20;99.90;;;;;;5066132;28;20214;-31
2023/01/01 10:13:21;;;;;;;8.53;2.67;;;16.20;99.90;;;;;;5064601;28;20239;-31
2023/01/01 10:16:19;;;;;;;7.63;2.50;;;16.20;99.90;;;;;;5064718;28;20688;-31
2023/01/01 10:19:01;;;;;;;8.97;2.53;;;16.20;99.90;;;;;;5066989;28;21403;-33
2023/01/01 10:21:38;;;;;;;7.77;2.50;;;16.20;99.90;;;;;;5064729;28;20203;-33
2023/01/01 10:24:26;;;;;;;11.27;2.40;;;16.30;99.90;;;;;;5066212;28;20196;-33
2023/01/01 10:26:54;;;;;;;7.90;2.45;;;16.30;99.90;;;;;;5068109;28;20207;-33
2023/01/01 10:29:37;;;;;;;6.87;2.50;;;16.30;99.90;;;;;;5066333;28;20230;-31
2023/01/01 10:32:20;;;;;;;7.63;2.60;;;16.30;99.90;;;;;;5063438;28;20257;-31
2023/01/01 10:34:49;;;;;;;5.27;2.47;;;16.30;99.90;;;;;;5065390;28;20212;-31
2023/01/01 10:37:17;;;;;;;10.27;2.57;;;16.30;99.90;;;;;;5062641;28;20207;-31
2023/01/01 10:39:48;;;;;;;7.97;2.37;;;16.40;99.90;;;;;;5066533;28;20199;-31
2023/01/01 10:42:18;;;;;;;8.23;2.57;;;16.40;99.90;;;;;;5057948;28;20293;-31
2023/01/01 10:44:45;;;;;;;6.73;2.20;;;16.40;99.90;;;;;;5066671;28;20273;-31
2023/01/01 10:47:31;;;;;;;7.67;2.27;;;16.40;99.90;;;;;;5062952;28;20320;-33
2023/01/01 10:50:01;;;;;;;7.47;2.63;;;16.50;99.90;;;;;;5059480;28;20207;-31
2023/01/01 10:52:37;;;;;;;9.90;2.40;;;16.50;99.90;;;;;;5063485;28;20289;-31
2023/01/01 10:55:05;;;;;;;6.57;2.27;;;16.40;99.90;;;;;;5066155;28;20210;-31
2023/01/01 10:57:37;;;;;;;5.05;1.77;;;16.50;99.90;;;;;;5061486;28;20579;-31
2023/01/01 11:00:27;;;;;;;6.53;2.27;;;16.50;99.90;;;;;;5066650;28;20311;-31
2023/01/01 11:03:11;;;;;;;7.83;2.23;;;16.50;99.90;;;;;;5058544;28;20196;-31
2023/01/01 11:05:39;;;;;;;10.27;2.23;;;16.50;99.90;;;;;;5065290;28;20210;-33
2023/01/01 11:08:25;;;;;;;12.97;2.63;;;16.50;99.90;;;;;;5064265;28;20294;-33
2023/01/01 11:10:52;;;;;;;5.63;2.10;;;16.60;99.90;;;;;;5054894;28;20219;-33
2023/01/01 11:13:24;;;;;;;9.73;2.43;;;16.60;99.90;;;;;;5059832;28;20290;-33
2023/01/01 11:15:56;;;;;;;6.20;2.27;;;16.50;99.90;;;;;;5066266;28;20265;-33
2023/01/01 11:18:34;;;;;;;4.75;2.35;;;16.50;99.90;;;;;;5060870;28;20247;-33
2023/01/01 11:21:05;;;;;;;7.17;2.47;;;16.50;99.90;;;;;;5063249;28;20229;-33
2023/01/01 11:23:38;;;;;;;6.53;1.93;;;16.60;99.90;;;;;;5062567;28;20980;-33
2023/01/01 11:26:16;;;;;;;8.23;2.30;;;16.60;99.90;;;;;;5066049;28;20214;-31
2023/01/01 11:29:17;;;;;;;8.73;2.27;;;16.60;99.90;;;;;;5064577;28;20230;-31
2023/01/01 11:31:51;;;;;;;6.63;1.90;;;16.60;99.90;;;;;;5066296;28;20635;-31
2023/01/01 11:34:32;;;;;;;6.97;2.60;;;16.60;99.90;;;;;;5062877;28;20204;-31
2023/01/01 11:37:28;;;;;;;5.37;2.13;;;16.60;99.90;;;;;;5058035;28;20566;-31
2023/01/01 11:40:00;;;;;;;9.37;2.67;;;16.60;99.90;;;;;;5070864;28;20649;-33
2023/01/01 11:42:31;;;;;;;6.93;2.33;;;16.60;99.90;;;;;;5060176;28;20223;-33
2023/01/01 11:45:22;;;;;;;9.67;2.60;;;16.60;99.90;;;;;;5065493;28;20276;-33
2023/01/01 11:47:58;;;;;;;9.13;2.40;;;16.70;99.90;;;;;;5064534;28;20285;-33
2023/01/01 11:50:31;;;;;;;7.85;2.40;;;16.70;99.90;;;;;;5063283;28;20601;-33
2023/01/01 11:53:16;;;;;;;7.37;2.10;;;16.70;99.90;;;;;;5061461;28;20235;-33
2023/01/01 11:56:09;;;;;;;7.47;2.60;;;16.70;99.90;;;;;;5065542;28;20280;-33
2023/01/01 11:59:01;;;;;;;9.03;2.47;;;16.70;99.90;;;;;;5062754;28;20238;-34
2023/01/01 12:01:40;;;;;;;8.47;2.40;;;16.80;99.90;;;;;;5065822;28;20664;-33
2023/01/01 12:04:19;;;;;;;9.30;2.70;;;16.80;99.90;;;;;;5064924;28;20778;-33
2023/01/01 12:07:10;;;;;;;6.17;1.80;;;16.80;99.90;;;;;;5062873;28;20290;-33
2023/01/01 12:09:56;;;;;;;8.57;2.50;;;16.80;99.90;;;;;;5063875;28;20208;-33
2023/01/01 12:12:34;;;;;;;8.87;2.10;;;16.80;99.90;;;;;;5060621;28;20207;-33
2023/01/01 12:15:13;;;;;;;5.73;2.17;;;16.80;99.90;;;;;;5064598;28;20292;-33
2023/01/01 12:18:02;;;;;;;7.43;2.40;;;16.80;99.90;;;;;;5061690;28;20215;-33
2023/01/01 12:20:39;;;;;;;9.47;2.50;;;16.70;99.90;;;;;;5060254;28;20196;-31
2023/01/01 12:23:09;;;;;;;7.20;2.30;;;16.80;99.90;;;;;;5061607;28;20203;-31
2023/01/01 12:25:43;;;;;;;9.63;3.13;;;16.70;99.90;;;;;;5063692;28;20682;-31
2023/01/01 12:28:50;;;;;;;6.33;2.40;;;16.70;99.90;;;;;;5062346;28;20215;-31
2023/01/01 12:31:41;;;;;;;9.25;2.72;;;16.70;99.90;;;;;;5069362;28;20290;-31
2023/01/01 12:34:35;;;;;;;6.47;2.08;;;16.70;99.90;;;;;;5063773;28;20207;-31
2023/01/01 12:37:33;;;;;;;6.15;2.42;;;16.70;99.90;;;;;;5060754;28;20222;-31
2023/01/01 12:40:34;;;;;;;6.33;2.70;;;16.70;99.90;;;;;;5065139;28;20281;-31
2023/01/01 12:43:13;;;;;;;8.77;2.70;;;16.70;99.90;;;;;;5063748;28;20226;-31
2023/01/01 12:46:02;;;;;;;7.23;2.37;;;16.70;99.90;;;;;;5064155;28;20210;-31
2023/01/01 12:48:57;;;;;;;11.43;2.60;;;16.70;99.90;;;;;;5064540;28;20710;-31
2023/01/01 12:51:29;;;;;;;9.10;2.90;;;16.70;99.90;;;;;;5050907;28;20650;-31
2023/01/01 12:54:24;;;;;;;8.45;2.75;;;16.70;99.90;;;;;;5060114;28;20292;-31
2023/01/01 12:57:13;;;;;;;6.00;2.27;;;16.60;99.90;;;;;;5062737;28;20226;-31
2023/01/01 12:59:47;;;;;;;6.90;2.63;;;16.60;99.90;;;;;;5062934;28;20235;-31
2023/01/01 13:02:27;;;;;;;7.37;2.93;;;16.60;99.90;;;;;;5063165;28;20302;-31
2023/01/01 13:05:14;;;;;;;7.10;2.10;;;16.60;99.90;;;;;;5061549;28;20211;-32
2023/01/01 13:07:47;;;;;;;8.80;2.40;;;16.60;99.90;;;;;;5056780;28;20196;-31
2023/01/01 13:10:37;;;;;;;6.57;2.17;;;16.60;99.90;;;;;;5044756;28;20291;-31
2023/01/01 13:13:07;;;;;;;8.50;2.00;;;16.60;99.90;;;;;;5061281;28;20694;-31
2023/01/01 13:15:36;;;;;;;6.87;2.30;;;16.60;99.90;;;;;;5052932;28;20212;-31
2023/01/01 13:18:13;;;;;;;5.60;2.27;;;16.60;99.90;;;;;;5058063;28;20208;-31
2023/01/01 13:20:45;;;;;;;7.43;2.57;;;16.60;99.90;;;;;;5059011;28;20227;-31
2023/01/01 13:23:28;;;;;;;6.93;2.40;;;16.60;99.90;;;;;;5054963;28;20305;-31